Strona główna
METAR-TAF:

METAR-TAF

Lotnisko :

Sidney-Richland Municipal Airport

Sidney, Montana, Stany Zjednoczone

Szerokość geograficzna: 47-42N, Długość geograficzna: 104-12W, wysokość: 605 m

Aktualna obserwacja pogody

Raport powstał 1 godzina i 1 minut temu, godzina 16:56 UTC
Wiatr 10 kt od południowy wschód
Temperatura 23°C
Wilgotność 41%
Ciśnienie 1022 hPa
Widzialność: 16.1 km
bezchmurnie

METAR: KSDY 211656Z AUTO 14010KT 10SM CLR 23/09 A3018 RMK AO2 SLP608 T02280094

czas: 11:57 (17:57 UTC)

Prognoza

Raport powstał 37 minut temu, godzina 17:20 UTC
Prognoza ważna od 21 godzina 18 UTC do 22 godzina 18 UTC
Wiatr 10 kt od południowy wschód
Widzialność: 10 km
bezchmurnie
Od 22 godzina 0000 UTC
Wiatr 6 kt z kierunków zmiennych
Widzialność: 10 km
bezchmurnie
Od 22 godzina 1600 UTC
Wiatr 13 kt od południowy wschód w porywach dochodzący do 20 kt
Widzialność: 10 km
Rozproszone chmury na wysokości 25000 ft

TAF: KSDY 211720Z 2118/2218 13010KT P6SM SKC FM220000 VRB06KT P6SM SKC FM221600 14013G20KT P6SM SCT250

Obserwacja i prognoza pogody dla ponad 4000 lotnisk (raport METAR i TAF).

Dostępne stacje oznaczono żółtymi i czerwonymi punktami na mapie.

Najedź kursorem aby zobaczyć nazwę stacji.

Kliknij aby zobaczyć obserwacje i prognozy pogody.

Aby zmienić mapę: kliknij na zielony przycisk z czarnym krzyżykiem, aby powiększyć; na zielony przycisk z myślnikiem, aby pomniejszyć; na zielone strzałki, aby przejść do map sąsiednich.


METAR-TAF: